createdAt,value
2022-09-13T00:00:39.697Z,19.20
2022-09-13T00:03:08.621Z,19.20
2022-09-13T00:05:40.113Z,19.20
2022-09-13T00:08:11.055Z,19.20
2022-09-13T00:10:44.139Z,19.20
2022-09-13T00:13:13.226Z,19.20
2022-09-13T00:15:52.417Z,19.20
2022-09-13T00:18:21.191Z,19.20
2022-09-13T00:20:49.354Z,19.20
2022-09-13T00:23:20.463Z,19.20
2022-09-13T00:25:48.292Z,19.20
2022-09-13T00:28:26.591Z,19.20
2022-09-13T00:30:54.323Z,19.40
2022-09-13T00:33:22.685Z,19.10
2022-09-13T00:35:54.617Z,19.10
2022-09-13T00:38:24.929Z,19.10
2022-09-13T00:40:52.627Z,19.00
2022-09-13T00:43:22.155Z,19.00
2022-09-13T00:45:50.094Z,18.90
2022-09-13T00:48:26.293Z,18.90
2022-09-13T00:50:59.907Z,18.90
2022-09-13T00:53:43.977Z,18.90
2022-09-13T00:56:28.261Z,18.80
2022-09-13T00:59:04.460Z,18.80
2022-09-13T01:01:44.452Z,18.70
2022-09-13T01:04:17.349Z,18.70
2022-09-13T01:06:49.325Z,18.60
2022-09-13T01:09:18.207Z,18.60
2022-09-13T01:12:04.592Z,18.60
2022-09-13T01:14:33.387Z,18.50
2022-09-13T01:17:01.370Z,18.40
2022-09-13T01:19:29.290Z,18.40
2022-09-13T01:22:15.737Z,18.30
2022-09-13T01:25:05.195Z,18.20
2022-09-13T01:27:49.978Z,18.20
2022-09-13T01:30:27.508Z,18.20
2022-09-13T01:33:02.989Z,18.10
2022-09-13T01:35:54.111Z,18.00
2022-09-13T01:38:54.599Z,18.00
2022-09-13T01:41:31.191Z,18.10
2022-09-13T01:44:25.593Z,18.00
2022-09-13T01:47:14.720Z,17.90
2022-09-13T01:50:09.695Z,17.90
2022-09-13T01:52:50.151Z,17.90
2022-09-13T01:55:39.263Z,17.90
2022-09-13T01:58:48.097Z,17.90
2022-09-13T02:01:25.528Z,17.90
2022-09-13T02:04:15.230Z,17.90
2022-09-13T02:07:13.478Z,17.90
2022-09-13T02:09:51.531Z,17.90
2022-09-13T02:12:24.172Z,17.90
2022-09-13T02:15:16.693Z,17.90
2022-09-13T02:17:50.731Z,17.90
2022-09-13T02:20:33.323Z,17.90
2022-09-13T02:23:05.372Z,17.90
2022-09-13T02:25:40.041Z,17.90
2022-09-13T02:28:12.059Z,17.90
2022-09-13T02:30:50.162Z,17.90
2022-09-13T02:33:31.165Z,18.00
2022-09-13T02:36:27.220Z,18.10
2022-09-13T02:39:03.383Z,18.20
2022-09-13T02:41:54.658Z,18.30
2022-09-13T02:44:22.185Z,18.30
2022-09-13T02:47:00.213Z,18.40
2022-09-13T02:50:06.169Z,18.50
2022-09-13T02:52:55.906Z,18.60
2022-09-13T02:55:56.501Z,18.70
2022-09-13T02:58:47.485Z,18.70
2022-09-13T03:01:15.690Z,18.80
2022-09-13T03:03:45.113Z,18.90
2022-09-13T03:06:28.206Z,18.90
2022-09-13T03:09:03.164Z,18.90
2022-09-13T03:11:44.177Z,18.90
2022-09-13T03:14:33.203Z,18.90
2022-09-13T03:17:12.007Z,18.90
2022-09-13T03:20:14.746Z,18.90
2022-09-13T03:23:30.336Z,18.90
2022-09-13T03:26:22.605Z,18.90
2022-09-13T03:29:03.154Z,18.90
2022-09-13T03:31:40.914Z,18.90
2022-09-13T03:34:23.111Z,18.90
2022-09-13T03:36:57.171Z,18.90
2022-09-13T03:39:44.376Z,19.00
2022-09-13T03:42:33.991Z,19.00
2022-09-13T03:45:12.010Z,19.00
2022-09-13T03:47:44.591Z,19.00
2022-09-13T03:50:29.602Z,19.00
2022-09-13T03:53:03.518Z,19.00
2022-09-13T03:55:39.370Z,19.00
2022-09-13T03:58:07.363Z,19.00
2022-09-13T04:00:35.039Z,19.00
2022-09-13T04:03:02.764Z,19.00
2022-09-13T04:05:33.083Z,19.00
2022-09-13T04:08:01.956Z,19.00
2022-09-13T04:10:33.843Z,19.00
2022-09-13T04:13:01.680Z,19.00
2022-09-13T04:15:31.367Z,19.00
2022-09-13T04:17:59.889Z,19.00
2022-09-13T04:20:49.174Z,19.00
2022-09-13T04:23:23.554Z,19.00
2022-09-13T04:25:51.661Z,19.00
2022-09-13T04:28:20.404Z,19.00
2022-09-13T04:30:51.192Z,19.00
2022-09-13T04:33:19.871Z,19.00
2022-09-13T04:35:51.253Z,19.00
2022-09-13T04:38:18.911Z,19.00
2022-09-13T04:40:53.697Z,19.00
2022-09-13T04:43:22.909Z,18.90
2022-09-13T04:45:50.967Z,18.90
2022-09-13T04:48:19.117Z,18.90
2022-09-13T04:50:47.828Z,18.90
2022-09-13T04:53:18.744Z,18.90
2022-09-13T04:55:46.407Z,18.90
2022-09-13T04:58:14.296Z,18.90
2022-09-13T05:00:46.170Z,18.90
2022-09-13T05:03:16.709Z,18.90
2022-09-13T05:05:46.203Z,18.90
2022-09-13T05:08:18.722Z,18.90
2022-09-13T05:10:49.644Z,19.00
2022-09-13T05:13:18.372Z,18.90
2022-09-13T05:15:47.260Z,18.90
2022-09-13T05:18:15.000Z,18.80
2022-09-13T05:20:42.755Z,18.80
2022-09-13T05:23:13.397Z,18.80
2022-09-13T05:25:44.075Z,18.80
2022-09-13T05:28:12.167Z,18.80
2022-09-13T05:30:42.459Z,18.70
2022-09-13T05:33:10.200Z,18.70
2022-09-13T05:35:45.087Z,18.70
2022-09-13T05:38:12.695Z,18.70
2022-09-13T05:40:42.796Z,18.70
2022-09-13T05:43:10.484Z,18.70
2022-09-13T05:45:38.360Z,18.70
2022-09-13T05:48:08.846Z,18.70
2022-09-13T05:50:57.644Z,18.70
2022-09-13T05:53:26.061Z,18.70
2022-09-13T05:55:53.725Z,18.70
2022-09-13T05:58:23.649Z,18.70
2022-09-13T06:00:58.503Z,18.70
2022-09-13T06:03:26.395Z,18.70
2022-09-13T06:06:00.553Z,18.70
2022-09-13T06:08:31.257Z,18.70
2022-09-13T06:11:07.506Z,18.70
2022-09-13T06:13:36.028Z,18.70
2022-09-13T06:16:06.210Z,18.70
2022-09-13T06:18:36.030Z,18.70
2022-09-13T06:21:29.914Z,18.70
2022-09-13T06:24:01.257Z,18.70
2022-09-13T06:26:43.198Z,18.80
2022-09-13T06:29:46.292Z,18.80
2022-09-13T06:32:16.351Z,18.80
2022-09-13T06:34:44.056Z,18.80
2022-09-13T06:37:14.441Z,18.80
2022-09-13T06:39:47.817Z,18.80
2022-09-13T06:42:17.998Z,18.80
2022-09-13T06:44:52.073Z,18.80
2022-09-13T06:47:19.733Z,18.80
2022-09-13T06:49:47.324Z,18.80
2022-09-13T06:52:15.099Z,18.80
2022-09-13T06:54:43.987Z,18.80
2022-09-13T06:57:11.958Z,18.80
2022-09-13T06:59:42.038Z,18.80
2022-09-13T07:02:11.188Z,18.80
2022-09-13T07:04:38.820Z,18.80
2022-09-13T07:07:06.499Z,18.80
2022-09-13T07:09:35.574Z,18.80
2022-09-13T07:12:07.449Z,18.70
2022-09-13T07:14:39.235Z,19.00
2022-09-13T07:17:10.344Z,18.70
2022-09-13T07:19:38.926Z,18.70
2022-09-13T07:22:06.618Z,18.70
2022-09-13T07:24:38.434Z,18.70
2022-09-13T07:27:06.118Z,18.70
2022-09-13T07:29:33.862Z,18.70
2022-09-13T07:32:05.537Z,18.70
2022-09-13T07:34:33.826Z,18.70
2022-09-13T07:37:04.524Z,18.70
2022-09-13T07:39:32.139Z,18.70
2022-09-13T07:41:59.874Z,18.70
2022-09-13T07:44:27.540Z,18.70
2022-09-13T07:46:55.331Z,18.70
2022-09-13T07:49:27.436Z,18.70
2022-09-13T07:51:55.615Z,18.80
2022-09-13T07:54:23.260Z,18.80
2022-09-13T07:56:51.890Z,18.80
2022-09-13T07:59:19.793Z,18.70
2022-09-13T08:01:51.539Z,18.70
2022-09-13T08:04:23.816Z,18.60
2022-09-13T08:06:51.556Z,18.60
2022-09-13T08:09:19.762Z,18.60
2022-09-13T08:11:53.080Z,18.70
2022-09-13T08:14:22.486Z,18.70
2022-09-13T08:16:50.969Z,18.70
2022-09-13T08:19:19.482Z,18.70
2022-09-13T08:21:47.223Z,18.70
2022-09-13T08:24:19.935Z,18.70
2022-09-13T08:26:48.337Z,18.70
2022-09-13T08:29:17.550Z,18.80
2022-09-13T08:31:45.531Z,18.80
2022-09-13T08:34:15.483Z,18.90
2022-09-13T08:36:43.871Z,18.90
2022-09-13T08:39:13.775Z,19.00
2022-09-13T08:41:48.666Z,19.10
2022-09-13T08:44:31.439Z,19.30
2022-09-13T08:47:20.895Z,19.40
2022-09-13T08:50:06.234Z,19.60
2022-09-13T08:52:41.037Z,19.70
2022-09-13T08:55:31.940Z,19.90
2022-09-13T08:58:02.713Z,20.10
2022-09-13T09:00:41.198Z,20.30
2022-09-13T09:03:24.201Z,20.40
2022-09-13T09:05:52.605Z,20.50
2022-09-13T09:08:49.866Z,20.50
2022-09-13T09:11:37.362Z,20.40
2022-09-13T09:14:18.136Z,20.30
2022-09-13T09:16:53.841Z,20.20
2022-09-13T09:19:27.399Z,20.00
2022-09-13T09:21:59.826Z,19.80
2022-09-13T09:24:32.412Z,19.70
2022-09-13T09:27:03.255Z,19.60
2022-09-13T09:29:41.086Z,19.50
2022-09-13T09:32:40.338Z,19.50
2022-09-13T09:35:27.644Z,19.30
2022-09-13T09:38:48.576Z,19.20
2022-09-13T09:41:26.919Z,19.00
2022-09-13T09:44:20.597Z,18.90
2022-09-13T09:47:11.173Z,19.20
2022-09-13T09:50:13.173Z,18.90
2022-09-13T09:52:59.190Z,18.80
2022-09-13T09:55:49.222Z,18.80
2022-09-13T09:58:41.118Z,18.80
2022-09-13T10:01:26.062Z,18.70
2022-09-13T10:04:24.286Z,18.70
2022-09-13T10:07:23.252Z,18.70
2022-09-13T10:10:05.889Z,18.70
2022-09-13T10:12:37.647Z,18.70
2022-09-13T10:15:20.446Z,18.70
2022-09-13T10:18:42.483Z,18.70
2022-09-13T10:21:08.238Z,18.70
2022-09-13T10:23:37.394Z,18.70
2022-09-13T10:26:27.045Z,18.60
2022-09-13T10:29:07.652Z,18.70
2022-09-13T10:31:43.976Z,18.70
2022-09-13T10:34:23.104Z,18.70
2022-09-13T10:36:54.458Z,18.70
2022-09-13T10:39:24.885Z,18.60
2022-09-13T10:42:05.317Z,18.60
2022-09-13T10:44:41.451Z,18.50
2022-09-13T10:47:39.595Z,18.50
2022-09-13T10:50:33.522Z,18.50
2022-09-13T10:53:03.199Z,18.60
2022-09-13T10:55:37.100Z,18.60
2022-09-13T10:58:07.830Z,18.60
2022-09-13T11:00:57.208Z,18.70
2022-09-13T11:04:05.195Z,18.50
2022-09-13T11:06:46.539Z,18.80
2022-09-13T11:09:33.793Z,18.90
2022-09-13T11:12:34.353Z,19.00
2022-09-13T11:15:27.443Z,19.10
2022-09-13T11:18:10.331Z,19.20
2022-09-13T11:21:16.631Z,19.40
2022-09-13T11:23:47.317Z,19.50
2022-09-13T11:26:37.343Z,19.70
2022-09-13T11:29:24.628Z,19.80
2022-09-13T11:32:16.611Z,19.90
2022-09-13T11:38:00.022Z,19.90
2022-09-13T11:40:36.188Z,19.90
2022-09-13T11:43:17.356Z,19.90
2022-09-13T11:46:16.199Z,19.80
2022-09-13T11:48:57.961Z,19.70
2022-09-13T11:51:50.401Z,19.70
2022-09-13T11:54:36.529Z,19.70
2022-09-13T11:57:20.065Z,19.70
2022-09-13T12:00:03.017Z,19.70
2022-09-13T12:03:10.443Z,19.70
2022-09-13T12:06:20.950Z,19.80
2022-09-13T12:08:54.706Z,19.80
2022-09-13T12:11:35.148Z,19.90
2022-09-13T12:14:19.090Z,19.90
2022-09-13T12:16:51.539Z,19.90
2022-09-13T12:19:50.290Z,19.90
2022-09-13T12:22:30.723Z,20.00
2022-09-13T12:25:04.188Z,20.00
2022-09-13T12:27:48.899Z,20.20
2022-09-13T12:30:22.143Z,20.20
2022-09-13T12:32:58.636Z,20.30
2022-09-13T12:35:42.470Z,20.30
2022-09-13T12:39:03.650Z,20.40
2022-09-13T12:42:20.644Z,20.60
2022-09-13T12:45:04.146Z,20.70
2022-09-13T12:47:47.832Z,20.80
2022-09-13T12:50:53.380Z,20.90
2022-09-13T12:53:50.402Z,20.90
2022-09-13T12:56:43.336Z,21.00
2022-09-13T12:59:27.543Z,21.00
2022-09-13T13:01:57.408Z,20.90
2022-09-13T13:04:36.002Z,20.80
2022-09-13T13:07:19.058Z,20.80
2022-09-13T13:09:53.896Z,20.70
2022-09-13T13:12:32.960Z,20.70
2022-09-13T13:15:17.867Z,20.70
2022-09-13T13:18:28.108Z,20.70
2022-09-13T13:21:01.802Z,20.70
2022-09-13T13:23:39.401Z,20.60
2022-09-13T13:26:33.073Z,20.70
2022-09-13T13:29:06.082Z,20.70
2022-09-13T13:31:38.018Z,20.70
2022-09-13T13:34:14.358Z,20.70
2022-09-13T13:36:42.148Z,20.70
2022-09-13T13:39:25.185Z,20.60
2022-09-13T13:41:54.424Z,20.60
2022-09-13T13:44:22.008Z,20.50
2022-09-13T13:47:13.365Z,20.50
2022-09-13T13:49:40.936Z,20.40
2022-09-13T13:52:11.959Z,20.40
2022-09-13T13:54:43.308Z,20.40
2022-09-13T13:57:23.113Z,20.40
2022-09-13T14:00:11.627Z,20.30
2022-09-13T14:02:50.691Z,20.30
2022-09-13T14:05:54.678Z,20.20
2022-09-13T14:08:42.373Z,20.20
2022-09-13T14:11:41.643Z,20.20
2022-09-13T14:14:28.217Z,20.20
2022-09-13T14:17:29.589Z,20.20
2022-09-13T14:20:16.077Z,20.20
2022-09-13T14:22:46.615Z,20.20
2022-09-13T14:25:41.803Z,20.30
2022-09-13T14:28:12.121Z,20.20
2022-09-13T14:30:47.169Z,20.20
2022-09-13T14:33:32.613Z,20.20
2022-09-13T14:36:22.976Z,20.20
2022-09-13T14:38:58.892Z,20.20
2022-09-13T14:41:33.344Z,20.10
2022-09-13T14:44:29.048Z,20.00
2022-09-13T14:47:18.516Z,19.90
2022-09-13T14:49:54.031Z,19.80
2022-09-13T14:52:30.381Z,19.80
2022-09-13T14:55:04.500Z,19.80
2022-09-13T14:57:45.680Z,19.80
2022-09-13T15:03:16.072Z,19.70
2022-09-13T15:05:58.748Z,19.60
2022-09-13T15:08:36.176Z,19.50
2022-09-13T15:11:16.400Z,19.80
2022-09-13T15:13:44.515Z,19.40
2022-09-13T15:16:54.058Z,19.40
2022-09-13T15:19:51.636Z,20.10
2022-09-13T15:22:30.222Z,19.30
2022-09-13T15:24:59.437Z,19.40
2022-09-13T15:27:54.580Z,19.30
2022-09-13T15:30:31.760Z,19.30
2022-09-13T15:33:11.687Z,19.30
2022-09-13T15:35:44.660Z,19.20
2022-09-13T15:38:16.998Z,19.20
2022-09-13T15:41:01.427Z,19.20
2022-09-13T15:43:32.366Z,19.30
2022-09-13T15:46:04.943Z,19.20
2022-09-13T15:48:37.911Z,19.20
2022-09-13T15:51:13.427Z,19.10
2022-09-13T15:53:44.369Z,19.10
2022-09-13T15:56:29.519Z,19.10
2022-09-13T15:58:57.157Z,19.00
2022-09-13T16:01:25.669Z,19.00
2022-09-13T16:03:53.944Z,19.00
2022-09-13T16:06:24.808Z,19.00
2022-09-13T16:08:52.716Z,19.00
2022-09-13T16:11:28.048Z,19.00
2022-09-13T16:13:57.125Z,19.00
2022-09-13T16:16:24.849Z,19.00
2022-09-13T16:18:52.614Z,19.00
2022-09-13T16:21:20.270Z,19.00
2022-09-13T16:23:48.006Z,19.00
2022-09-13T16:26:16.342Z,18.90
2022-09-13T16:28:43.962Z,18.90
2022-09-13T16:31:17.152Z,18.90
2022-09-13T16:33:47.667Z,18.80
2022-09-13T16:36:16.627Z,18.80
2022-09-13T16:38:44.445Z,18.70
2022-09-13T16:41:15.269Z,18.70
2022-09-13T16:43:43.177Z,18.70
2022-09-13T16:46:13.613Z,18.60
2022-09-13T16:48:43.218Z,18.60
2022-09-13T16:51:12.846Z,18.60
2022-09-13T16:53:41.947Z,18.60
2022-09-13T16:56:17.594Z,18.50
2022-09-13T16:58:49.699Z,18.50
2022-09-13T17:01:26.463Z,18.40
2022-09-13T17:03:55.603Z,18.40
2022-09-13T17:06:27.659Z,18.40
2022-09-13T17:09:00.710Z,18.30
2022-09-13T17:11:32.647Z,18.30
2022-09-13T17:14:01.745Z,18.30
2022-09-13T17:16:37.438Z,18.20
2022-09-13T17:19:08.391Z,18.20
2022-09-13T17:21:41.413Z,18.20
2022-09-13T17:24:13.798Z,18.10
2022-09-13T17:26:44.445Z,18.10
2022-09-13T17:29:12.362Z,18.10
2022-09-13T17:31:40.344Z,18.10
2022-09-13T17:34:08.512Z,18.10
2022-09-13T17:36:36.381Z,18.00
2022-09-13T17:39:07.462Z,18.00
2022-09-13T17:41:37.972Z,18.00
2022-09-13T17:44:06.020Z,18.00
2022-09-13T17:46:34.653Z,17.90
2022-09-13T17:49:16.045Z,17.90
2022-09-13T17:51:46.200Z,17.90
2022-09-13T17:54:13.919Z,17.80
2022-09-13T17:56:44.421Z,17.80
2022-09-13T17:59:16.516Z,17.80
2022-09-13T18:01:49.770Z,17.80
2022-09-13T18:04:23.217Z,17.70
2022-09-13T18:06:55.736Z,17.70
2022-09-13T18:09:24.414Z,17.60
2022-09-13T18:11:52.131Z,17.60
2022-09-13T18:14:22.060Z,17.60
2022-09-13T18:16:55.535Z,17.50
2022-09-13T18:19:45.209Z,17.50
2022-09-13T18:22:13.925Z,17.50
2022-09-13T18:24:41.585Z,17.40
2022-09-13T18:27:09.151Z,17.40
2022-09-13T18:29:36.876Z,17.40
2022-09-13T18:32:04.606Z,17.40
2022-09-13T18:34:34.294Z,17.40
2022-09-13T18:37:02.518Z,17.40
2022-09-13T18:39:36.472Z,17.40
2022-09-13T18:42:04.687Z,17.30
2022-09-13T18:44:34.069Z,17.20
2022-09-13T18:47:03.958Z,17.20
2022-09-13T18:49:32.788Z,17.20
2022-09-13T18:52:00.461Z,17.20
2022-09-13T18:54:28.132Z,17.20
2022-09-13T18:56:56.351Z,17.10
2022-09-13T18:59:24.143Z,17.10
2022-09-13T19:01:52.166Z,17.00
2022-09-13T19:04:22.932Z,17.00
2022-09-13T19:06:58.321Z,17.00
2022-09-13T19:09:34.672Z,17.00
2022-09-13T19:12:06.316Z,17.00
2022-09-13T19:14:35.396Z,17.00
2022-09-13T19:17:04.723Z,17.00
2022-09-13T19:19:35.761Z,17.00
2022-09-13T19:22:03.517Z,16.90
2022-09-13T19:24:31.377Z,16.90
2022-09-13T19:27:01.079Z,16.90
2022-09-13T19:29:29.201Z,16.80
2022-09-13T19:32:00.007Z,16.80
2022-09-13T19:34:27.845Z,16.80
2022-09-13T19:37:00.641Z,16.70
2022-09-13T19:39:30.579Z,16.50
2022-09-13T19:42:32.335Z,16.50
2022-09-13T19:50:51.548Z,16.30
2022-09-13T19:53:35.532Z,16.20
2022-09-13T19:56:15.683Z,16.20
2022-09-13T19:58:44.418Z,16.20
2022-09-13T20:01:16.204Z,16.20
2022-09-13T20:03:53.618Z,16.20
2022-09-13T20:06:24.312Z,16.20
2022-09-13T20:08:53.838Z,16.20
2022-09-13T20:11:28.672Z,16.20
2022-09-13T20:13:59.732Z,16.20
2022-09-13T20:16:32.222Z,16.20
2022-09-13T20:19:18.637Z,16.30
2022-09-13T20:22:01.840Z,16.30
2022-09-13T20:24:29.602Z,16.30
2022-09-13T20:26:57.262Z,16.30
2022-09-13T20:29:27.778Z,16.30
2022-09-13T20:31:59.682Z,16.40
2022-09-13T20:34:38.764Z,16.40
2022-09-13T20:37:07.218Z,16.40
2022-09-13T20:39:35.187Z,16.40
2022-09-13T20:42:03.108Z,16.40
2022-09-13T20:44:34.236Z,16.40
2022-09-13T20:47:02.733Z,16.40
2022-09-13T20:49:31.507Z,16.40
2022-09-13T20:52:00.001Z,16.40
2022-09-13T20:54:32.603Z,16.40
2022-09-13T20:57:33.777Z,16.40
2022-09-13T21:00:40.896Z,16.30
2022-09-13T21:03:10.312Z,16.20
2022-09-13T21:05:42.441Z,16.30
2022-09-13T21:08:34.881Z,16.30
2022-09-13T21:11:03.953Z,16.30
2022-09-13T21:13:34.438Z,16.30
2022-09-13T21:16:04.444Z,16.30
2022-09-13T21:18:32.259Z,16.30
2022-09-13T21:21:02.070Z,16.30
2022-09-13T21:23:40.351Z,16.30
2022-09-13T21:26:11.877Z,16.30
2022-09-13T21:28:43.814Z,16.30
2022-09-13T21:31:17.194Z,16.30
2022-09-13T21:33:49.188Z,16.20
2022-09-13T21:36:21.287Z,16.20
2022-09-13T21:38:48.986Z,16.20
2022-09-13T21:41:18.517Z,16.20
2022-09-13T21:43:46.761Z,16.20
2022-09-13T21:46:18.085Z,16.20
2022-09-13T21:48:51.899Z,16.20
2022-09-13T21:51:24.840Z,16.20
2022-09-13T21:54:05.630Z,16.20
2022-09-13T21:56:46.597Z,16.20
2022-09-13T21:59:17.068Z,16.20
2022-09-13T22:01:47.035Z,16.10
2022-09-13T22:04:19.326Z,16.10
2022-09-13T22:06:48.663Z,16.10
2022-09-13T22:09:18.136Z,16.10
2022-09-13T22:11:48.053Z,16.00
2022-09-13T22:14:21.199Z,16.00
2022-09-13T22:16:50.848Z,16.00
2022-09-13T22:19:26.976Z,16.10
2022-09-13T22:21:58.979Z,16.00
2022-09-13T22:24:30.231Z,16.00
2022-09-13T22:26:59.193Z,16.00
2022-09-13T22:29:30.155Z,16.00
2022-09-13T22:31:57.754Z,16.20
2022-09-13T22:34:27.572Z,16.10
2022-09-13T22:36:56.859Z,16.10
2022-09-13T22:39:25.767Z,16.10
2022-09-13T22:41:53.429Z,16.10
2022-09-13T22:44:24.529Z,16.10
2022-09-13T22:46:52.167Z,16.10
2022-09-13T22:49:21.818Z,16.10
2022-09-13T22:51:53.255Z,16.10
2022-09-13T22:54:24.794Z,16.00
2022-09-13T22:56:52.424Z,16.10
2022-09-13T22:59:24.029Z,16.10
2022-09-13T23:01:51.738Z,16.10
2022-09-13T23:04:19.471Z,16.10
2022-09-13T23:06:47.545Z,16.00
2022-09-13T23:09:20.025Z,16.00
2022-09-13T23:11:47.962Z,16.00
2022-09-13T23:14:17.265Z,16.00
2022-09-13T23:16:50.183Z,16.10
2022-09-13T23:19:20.579Z,16.00
2022-09-13T23:21:48.703Z,16.10
2022-09-13T23:24:18.651Z,16.10
2022-09-13T23:26:47.382Z,16.10
2022-09-13T23:29:20.100Z,16.10
2022-09-13T23:31:51.778Z,16.10
2022-09-13T23:34:19.670Z,16.10
2022-09-13T23:36:53.069Z,16.20
2022-09-13T23:39:23.898Z,16.10
2022-09-13T23:41:54.279Z,16.20
2022-09-13T23:44:22.070Z,16.10
2022-09-13T23:46:53.446Z,16.20
2022-09-13T23:49:21.256Z,16.20
2022-09-13T23:52:05.477Z,16.10
2022-09-13T23:54:38.611Z,16.20
2022-09-13T23:57:06.344Z,16.10
2022-09-13T23:59:49.587Z,16.20
